sensor_id;sensor_type;location;lat;lon;timestamp;temperature;humidity
18703;DHT22;9481;48.796;9.210;2023-02-07T00:01:12;7.00;45.20
18703;DHT22;9481;48.796;9.210;2023-02-07T00:03:42;7.00;45.10
18703;DHT22;9481;48.796;9.210;2023-02-07T00:06:17;6.90;45.10
18703;DHT22;9481;48.796;9.210;2023-02-07T00:08:46;6.90;45.00
18703;DHT22;9481;48.796;9.210;2023-02-07T00:11:15;6.80;44.90
18703;DHT22;9481;48.796;9.210;2023-02-07T00:13:45;6.70;44.80
18703;DHT22;9481;48.796;9.210;2023-02-07T00:16:13;6.70;44.80
18703;DHT22;9481;48.796;9.210;2023-02-07T00:18:39;6.60;44.70
18703;DHT22;9481;48.796;9.210;2023-02-07T00:21:10;6.60;44.70
18703;DHT22;9481;48.796;9.210;2023-02-07T00:23:39;6.50;44.70
18703;DHT22;9481;48.796;9.210;2023-02-07T00:26:06;6.50;44.80
18703;DHT22;9481;48.796;9.210;2023-02-07T00:28:33;6.50;45.40
18703;DHT22;9481;48.796;9.210;2023-02-07T00:31:12;6.40;44.50
18703;DHT22;9481;48.796;9.210;2023-02-07T00:33:47;6.40;44.20
18703;DHT22;9481;48.796;9.210;2023-02-07T00:36:16;6.40;44.50
18703;DHT22;9481;48.796;9.210;2023-02-07T00:38:44;6.40;44.50
18703;DHT22;9481;48.796;9.210;2023-02-07T00:41:11;6.40;44.50
18703;DHT22;9481;48.796;9.210;2023-02-07T00:43:40;6.40;44.70
18703;DHT22;9481;48.796;9.210;2023-02-07T00:46:06;6.40;44.90
18703;DHT22;9481;48.796;9.210;2023-02-07T00:48:32;6.40;44.80
18703;DHT22;9481;48.796;9.210;2023-02-07T00:50:59;6.40;44.80
18703;DHT22;9481;48.796;9.210;2023-02-07T00:53:27;6.40;44.50
18703;DHT22;9481;48.796;9.210;2023-02-07T00:55:53;6.40;44.50
18703;DHT22;9481;48.796;9.210;2023-02-07T00:58:20;6.40;44.70
18703;DHT22;9481;48.796;9.210;2023-02-07T01:00:46;6.50;44.70
18703;DHT22;9481;48.796;9.210;2023-02-07T01:03:12;6.40;44.70
18703;DHT22;9481;48.796;9.210;2023-02-07T01:05:39;6.50;44.80
18703;DHT22;9481;48.796;9.210;2023-02-07T01:08:05;6.40;44.70
18703;DHT22;9481;48.796;9.210;2023-02-07T01:10:31;6.40;44.70
18703;DHT22;9481;48.796;9.210;2023-02-07T01:12:57;6.40;44.70
18703;DHT22;9481;48.796;9.210;2023-02-07T01:15:24;6.40;44.60
18703;DHT22;9481;48.796;9.210;2023-02-07T01:17:50;6.40;44.60
18703;DHT22;9481;48.796;9.210;2023-02-07T01:20:16;6.40;44.50
18703;DHT22;9481;48.796;9.210;2023-02-07T01:22:41;6.40;44.50
18703;DHT22;9481;48.796;9.210;2023-02-07T01:25:08;6.40;44.50
18703;DHT22;9481;48.796;9.210;2023-02-07T01:27:34;6.40;44.60
18703;DHT22;9481;48.796;9.210;2023-02-07T01:30:00;6.40;44.70
18703;DHT22;9481;48.796;9.210;2023-02-07T01:32:26;6.30;44.60
18703;DHT22;9481;48.796;9.210;2023-02-07T01:34:52;6.30;44.70
18703;DHT22;9481;48.796;9.210;2023-02-07T01:37:18;6.40;44.80
18703;DHT22;9481;48.796;9.210;2023-02-07T01:39:46;6.30;44.80
18703;DHT22;9481;48.796;9.210;2023-02-07T01:42:13;6.40;44.80
18703;DHT22;9481;48.796;9.210;2023-02-07T01:47:04;6.30;44.80
18703;DHT22;9481;48.796;9.210;2023-02-07T01:49:33;6.30;44.80
18703;DHT22;9481;48.796;9.210;2023-02-07T01:52:04;6.20;44.80
18703;DHT22;9481;48.796;9.210;2023-02-07T01:54:36;6.20;44.70
18703;DHT22;9481;48.796;9.210;2023-02-07T01:57:08;6.20;44.80
18703;DHT22;9481;48.796;9.210;2023-02-07T01:59:38;6.20;44.80
18703;DHT22;9481;48.796;9.210;2023-02-07T02:02:09;6.10;44.80
18703;DHT22;9481;48.796;9.210;2023-02-07T02:04:39;6.10;44.90
18703;DHT22;9481;48.796;9.210;2023-02-07T02:07:18;6.10;45.00
18703;DHT22;9481;48.796;9.210;2023-02-07T02:09:44;6.10;44.90
18703;DHT22;9481;48.796;9.210;2023-02-07T02:12:25;6.00;44.90
18703;DHT22;9481;48.796;9.210;2023-02-07T02:15:24;6.00;45.00
18703;DHT22;9481;48.796;9.210;2023-02-07T02:21:10;6.00;45.10
18703;DHT22;9481;48.796;9.210;2023-02-07T02:27:19;5.90;44.90
18703;DHT22;9481;48.796;9.210;2023-02-07T02:30:35;5.80;44.80
18703;DHT22;9481;48.796;9.210;2023-02-07T02:33:22;5.80;44.80
18703;DHT22;9481;48.796;9.210;2023-02-07T02:39:11;5.70;45.00
18703;DHT22;9481;48.796;9.210;2023-02-07T02:44:56;5.60;44.90
18703;DHT22;9481;48.796;9.210;2023-02-07T02:47:27;5.50;44.80
18703;DHT22;9481;48.796;9.210;2023-02-07T02:49:56;5.50;44.90
18703;DHT22;9481;48.796;9.210;2023-02-07T02:52:24;5.40;44.90
18703;DHT22;9481;48.796;9.210;2023-02-07T02:54:51;5.40;45.00
18703;DHT22;9481;48.796;9.210;2023-02-07T02:57:39;5.40;45.00
18703;DHT22;9481;48.796;9.210;2023-02-07T03:00:30;5.40;44.80
18703;DHT22;9481;48.796;9.210;2023-02-07T03:03:29;5.40;44.60
18703;DHT22;9481;48.796;9.210;2023-02-07T03:06:28;5.40;44.60
18703;DHT22;9481;48.796;9.210;2023-02-07T03:09:24;5.30;44.40
18703;DHT22;9481;48.796;9.210;2023-02-07T03:12:14;5.30;44.40
18703;DHT22;9481;48.796;9.210;2023-02-07T03:15:12;5.30;44.60
18703;DHT22;9481;48.796;9.210;2023-02-07T03:21:04;5.30;44.70
18703;DHT22;9481;48.796;9.210;2023-02-07T03:23:38;5.30;44.50
18703;DHT22;9481;48.796;9.210;2023-02-07T03:26:05;5.30;44.80
18703;DHT22;9481;48.796;9.210;2023-02-07T03:28:34;5.20;44.70
18703;DHT22;9481;48.796;9.210;2023-02-07T03:31:03;5.20;44.60
18703;DHT22;9481;48.796;9.210;2023-02-07T03:33:31;5.20;44.70
18703;DHT22;9481;48.796;9.210;2023-02-07T03:38:33;5.20;44.80
18703;DHT22;9481;48.796;9.210;2023-02-07T03:41:07;5.20;44.70
18703;DHT22;9481;48.796;9.210;2023-02-07T03:43:41;5.20;44.70
18703;DHT22;9481;48.796;9.210;2023-02-07T03:46:09;5.30;44.70
18703;DHT22;9481;48.796;9.210;2023-02-07T03:48:35;5.20;44.60
18703;DHT22;9481;48.796;9.210;2023-02-07T03:51:01;5.20;44.60
18703;DHT22;9481;48.796;9.210;2023-02-07T03:53:26;5.20;44.70
18703;DHT22;9481;48.796;9.210;2023-02-07T03:55:52;5.20;44.70
18703;DHT22;9481;48.796;9.210;2023-02-07T03:58:18;5.30;44.80
18703;DHT22;9481;48.796;9.210;2023-02-07T04:00:43;5.30;44.70
18703;DHT22;9481;48.796;9.210;2023-02-07T04:03:09;5.20;44.40
18703;DHT22;9481;48.796;9.210;2023-02-07T04:05:35;5.30;44.50
18703;DHT22;9481;48.796;9.210;2023-02-07T04:08:01;5.30;44.40
18703;DHT22;9481;48.796;9.210;2023-02-07T04:10:27;5.20;44.10
18703;DHT22;9481;48.796;9.210;2023-02-07T04:12:52;5.20;44.10
18703;DHT22;9481;48.796;9.210;2023-02-07T04:15:18;5.20;44.00
18703;DHT22;9481;48.796;9.210;2023-02-07T04:17:44;5.20;43.90
18703;DHT22;9481;48.796;9.210;2023-02-07T04:20:10;5.20;43.90
18703;DHT22;9481;48.796;9.210;2023-02-07T04:22:36;5.20;43.90
18703;DHT22;9481;48.796;9.210;2023-02-07T04:25:02;5.20;43.80
18703;DHT22;9481;48.796;9.210;2023-02-07T04:27:28;5.10;43.70
18703;DHT22;9481;48.796;9.210;2023-02-07T04:29:53;5.10;43.70
18703;DHT22;9481;48.796;9.210;2023-02-07T04:32:20;5.10;43.80
18703;DHT22;9481;48.796;9.210;2023-02-07T04:34:46;5.20;43.90
18703;DHT22;9481;48.796;9.210;2023-02-07T04:37:12;5.20;43.90
18703;DHT22;9481;48.796;9.210;2023-02-07T04:39:37;5.10;43.70
18703;DHT22;9481;48.796;9.210;2023-02-07T04:42:03;5.10;43.70
18703;DHT22;9481;48.796;9.210;2023-02-07T04:44:29;5.10;43.70
18703;DHT22;9481;48.796;9.210;2023-02-07T04:46:55;5.10;43.40
18703;DHT22;9481;48.796;9.210;2023-02-07T04:49:21;5.10;43.40
18703;DHT22;9481;48.796;9.210;2023-02-07T04:51:46;5.10;43.40
18703;DHT22;9481;48.796;9.210;2023-02-07T04:54:12;5.10;43.40
18703;DHT22;9481;48.796;9.210;2023-02-07T04:56:38;5.10;43.50
18703;DHT22;9481;48.796;9.210;2023-02-07T04:59:03;5.00;43.40
18703;DHT22;9481;48.796;9.210;2023-02-07T05:01:29;5.00;44.10
18703;DHT22;9481;48.796;9.210;2023-02-07T05:03:55;5.10;43.50
18703;DHT22;9481;48.796;9.210;2023-02-07T05:06:20;5.10;43.50
18703;DHT22;9481;48.796;9.210;2023-02-07T05:08:46;5.10;43.50
18703;DHT22;9481;48.796;9.210;2023-02-07T05:11:11;5.00;43.50
18703;DHT22;9481;48.796;9.210;2023-02-07T05:13:38;5.10;43.50
18703;DHT22;9481;48.796;9.210;2023-02-07T05:16:04;5.00;43.40
18703;DHT22;9481;48.796;9.210;2023-02-07T05:18:30;5.10;43.40
18703;DHT22;9481;48.796;9.210;2023-02-07T05:20:57;5.00;43.20
18703;DHT22;9481;48.796;9.210;2023-02-07T05:23:23;5.00;43.20
18703;DHT22;9481;48.796;9.210;2023-02-07T05:25:49;5.00;43.20
18703;DHT22;9481;48.796;9.210;2023-02-07T05:28:15;5.00;43.20
18703;DHT22;9481;48.796;9.210;2023-02-07T05:30:40;5.00;43.20
18703;DHT22;9481;48.796;9.210;2023-02-07T05:33:06;5.00;43.10
18703;DHT22;9481;48.796;9.210;2023-02-07T05:35:50;5.00;43.00
18703;DHT22;9481;48.796;9.210;2023-02-07T05:38:18;5.00;43.40
18703;DHT22;9481;48.796;9.210;2023-02-07T05:40:44;4.90;42.80
18703;DHT22;9481;48.796;9.210;2023-02-07T05:43:11;4.90;42.70
18703;DHT22;9481;48.796;9.210;2023-02-07T05:45:37;4.90;42.70
18703;DHT22;9481;48.796;9.210;2023-02-07T05:48:03;4.90;42.80
18703;DHT22;9481;48.796;9.210;2023-02-07T05:50:30;4.90;42.60
18703;DHT22;9481;48.796;9.210;2023-02-07T05:52:55;4.90;42.60
18703;DHT22;9481;48.796;9.210;2023-02-07T05:55:21;4.90;42.50
18703;DHT22;9481;48.796;9.210;2023-02-07T05:57:47;4.80;42.50
18703;DHT22;9481;48.796;9.210;2023-02-07T06:00:15;4.80;42.50
18703;DHT22;9481;48.796;9.210;2023-02-07T06:02:42;4.80;42.50
18703;DHT22;9481;48.796;9.210;2023-02-07T06:05:11;4.80;42.50
18703;DHT22;9481;48.796;9.210;2023-02-07T06:07:38;4.80;42.50
18703;DHT22;9481;48.796;9.210;2023-02-07T06:10:05;4.80;42.50
18703;DHT22;9481;48.796;9.210;2023-02-07T06:12:32;4.80;42.60
18703;DHT22;9481;48.796;9.210;2023-02-07T06:14:58;4.80;42.60
18703;DHT22;9481;48.796;9.210;2023-02-07T06:17:24;4.80;42.60
18703;DHT22;9481;48.796;9.210;2023-02-07T06:19:50;4.80;42.60
18703;DHT22;9481;48.796;9.210;2023-02-07T06:22:16;4.80;42.40
18703;DHT22;9481;48.796;9.210;2023-02-07T06:24:42;4.80;42.40
18703;DHT22;9481;48.796;9.210;2023-02-07T06:27:08;4.80;42.40
18703;DHT22;9481;48.796;9.210;2023-02-07T06:29:33;4.80;42.40
18703;DHT22;9481;48.796;9.210;2023-02-07T06:31:59;4.80;42.30
18703;DHT22;9481;48.796;9.210;2023-02-07T06:34:25;4.80;42.30
18703;DHT22;9481;48.796;9.210;2023-02-07T06:36:50;4.90;42.50
18703;DHT22;9481;48.796;9.210;2023-02-07T06:39:16;4.80;42.40
18703;DHT22;9481;48.796;9.210;2023-02-07T06:41:42;4.90;42.30
18703;DHT22;9481;48.796;9.210;2023-02-07T06:44:07;4.90;42.30
18703;DHT22;9481;48.796;9.210;2023-02-07T06:46:33;4.90;42.30
18703;DHT22;9481;48.796;9.210;2023-02-07T06:48:59;4.90;42.20
18703;DHT22;9481;48.796;9.210;2023-02-07T06:51:25;4.80;42.20
18703;DHT22;9481;48.796;9.210;2023-02-07T06:53:50;4.80;42.20
18703;DHT22;9481;48.796;9.210;2023-02-07T06:56:16;4.90;42.40
18703;DHT22;9481;48.796;9.210;2023-02-07T06:58:42;4.90;42.40
18703;DHT22;9481;48.796;9.210;2023-02-07T07:01:07;4.90;42.40
18703;DHT22;9481;48.796;9.210;2023-02-07T07:03:33;4.80;42.30
18703;DHT22;9481;48.796;9.210;2023-02-07T07:05:59;4.80;42.20
18703;DHT22;9481;48.796;9.210;2023-02-07T07:08:26;4.90;42.30
18703;DHT22;9481;48.796;9.210;2023-02-07T07:10:52;4.80;42.10
18703;DHT22;9481;48.796;9.210;2023-02-07T07:13:18;4.80;42.00
18703;DHT22;9481;48.796;9.210;2023-02-07T07:15:45;4.80;42.10
18703;DHT22;9481;48.796;9.210;2023-02-07T07:18:11;4.80;42.20
18703;DHT22;9481;48.796;9.210;2023-02-07T07:20:37;4.90;42.20
18703;DHT22;9481;48.796;9.210;2023-02-07T07:23:03;4.80;42.10
18703;DHT22;9481;48.796;9.210;2023-02-07T07:25:29;4.80;42.00
18703;DHT22;9481;48.796;9.210;2023-02-07T07:27:54;4.90;42.20
18703;DHT22;9481;48.796;9.210;2023-02-07T07:30:20;4.90;42.30
18703;DHT22;9481;48.796;9.210;2023-02-07T07:32:46;4.90;42.40
18703;DHT22;9481;48.796;9.210;2023-02-07T07:35:11;5.00;42.60
18703;DHT22;9481;48.796;9.210;2023-02-07T07:37:37;5.10;42.80
18703;DHT22;9481;48.796;9.210;2023-02-07T07:40:03;5.20;42.90
18703;DHT22;9481;48.796;9.210;2023-02-07T07:42:29;5.30;42.90
18703;DHT22;9481;48.796;9.210;2023-02-07T07:44:55;5.40;42.90
18703;DHT22;9481;48.796;9.210;2023-02-07T07:47:21;5.50;42.90
18703;DHT22;9481;48.796;9.210;2023-02-07T07:49:46;5.70;42.80
18703;DHT22;9481;48.796;9.210;2023-02-07T07:52:12;5.80;42.60
18703;DHT22;9481;48.796;9.210;2023-02-07T07:54:38;5.90;42.50
18703;DHT22;9481;48.796;9.210;2023-02-07T07:57:03;6.00;42.30
18703;DHT22;9481;48.796;9.210;2023-02-07T07:59:29;6.10;42.10
18703;DHT22;9481;48.796;9.210;2023-02-07T08:01:55;6.30;42.00
18703;DHT22;9481;48.796;9.210;2023-02-07T08:04:20;6.30;41.80
18703;DHT22;9481;48.796;9.210;2023-02-07T08:06:46;6.40;41.80
18703;DHT22;9481;48.796;9.210;2023-02-07T08:09:12;6.50;41.60
18703;DHT22;9481;48.796;9.210;2023-02-07T08:11:37;6.50;41.30
18703;DHT22;9481;48.796;9.210;2023-02-07T08:14:03;6.60;41.30
18703;DHT22;9481;48.796;9.210;2023-02-07T08:16:29;6.60;41.20
18703;DHT22;9481;48.796;9.210;2023-02-07T08:18:54;6.60;41.10
18703;DHT22;9481;48.796;9.210;2023-02-07T08:21:20;6.60;41.80
18703;DHT22;9481;48.796;9.210;2023-02-07T08:23:46;6.60;41.00
18703;DHT22;9481;48.796;9.210;2023-02-07T08:26:12;6.60;40.90
18703;DHT22;9481;48.796;9.210;2023-02-07T08:28:38;6.60;40.80
18703;DHT22;9481;48.796;9.210;2023-02-07T08:31:04;6.60;40.70
18703;DHT22;9481;48.796;9.210;2023-02-07T08:33:31;6.60;40.70
18703;DHT22;9481;48.796;9.210;2023-02-07T08:35:57;6.60;40.70
18703;DHT22;9481;48.796;9.210;2023-02-07T08:38:25;6.60;40.70
18703;DHT22;9481;48.796;9.210;2023-02-07T08:40:50;6.60;40.80
18703;DHT22;9481;48.796;9.210;2023-02-07T08:43:17;6.60;40.80
18703;DHT22;9481;48.796;9.210;2023-02-07T08:45:46;6.70;40.80
18703;DHT22;9481;48.796;9.210;2023-02-07T08:48:13;6.70;40.80
18703;DHT22;9481;48.796;9.210;2023-02-07T08:50:39;6.70;40.90
18703;DHT22;9481;48.796;9.210;2023-02-07T08:53:04;6.70;40.80
18703;DHT22;9481;48.796;9.210;2023-02-07T08:55:31;6.70;41.50
18703;DHT22;9481;48.796;9.210;2023-02-07T08:57:57;6.80;40.90
18703;DHT22;9481;48.796;9.210;2023-02-07T09:00:23;6.80;40.90
18703;DHT22;9481;48.796;9.210;2023-02-07T09:02:48;6.90;41.20
18703;DHT22;9481;48.796;9.210;2023-02-07T09:05:14;6.90;41.00
18703;DHT22;9481;48.796;9.210;2023-02-07T09:07:40;7.00;40.90
18703;DHT22;9481;48.796;9.210;2023-02-07T09:10:06;7.10;41.10
18703;DHT22;9481;48.796;9.210;2023-02-07T09:12:34;7.20;41.10
18703;DHT22;9481;48.796;9.210;2023-02-07T09:15:00;7.30;41.10
18703;DHT22;9481;48.796;9.210;2023-02-07T09:17:27;7.40;40.90
18703;DHT22;9481;48.796;9.210;2023-02-07T09:19:53;7.50;40.90
18703;DHT22;9481;48.796;9.210;2023-02-07T09:22:18;7.60;40.90
18703;DHT22;9481;48.796;9.210;2023-02-07T09:24:44;7.70;40.90
18703;DHT22;9481;48.796;9.210;2023-02-07T09:27:10;7.80;41.00
18703;DHT22;9481;48.796;9.210;2023-02-07T09:29:35;7.90;40.80
18703;DHT22;9481;48.796;9.210;2023-02-07T09:32:01;8.00;40.80
18703;DHT22;9481;48.796;9.210;2023-02-07T09:34:27;8.10;40.70
18703;DHT22;9481;48.796;9.210;2023-02-07T09:36:53;8.30;40.70
18703;DHT22;9481;48.796;9.210;2023-02-07T09:39:19;8.40;40.60
18703;DHT22;9481;48.796;9.210;2023-02-07T09:44:55;8.70;40.20
18703;DHT22;9481;48.796;9.210;2023-02-07T09:47:44;8.80;39.70
18703;DHT22;9481;48.796;9.210;2023-02-07T09:50:24;9.00;40.20
18703;DHT22;9481;48.796;9.210;2023-02-07T09:53:15;9.10;39.50
18703;DHT22;9481;48.796;9.210;2023-02-07T09:55:55;9.30;38.90
18703;DHT22;9481;48.796;9.210;2023-02-07T10:01:07;9.50;39.50
18703;DHT22;9481;48.796;9.210;2023-02-07T10:06:49;9.70;38.60
18703;DHT22;9481;48.796;9.210;2023-02-07T10:09:37;9.90;39.50
18703;DHT22;9481;48.796;9.210;2023-02-07T10:20:23;10.40;36.90
18703;DHT22;9481;48.796;9.210;2023-02-07T10:26:23;10.70;36.20
18703;DHT22;9481;48.796;9.210;2023-02-07T10:31:36;11.00;37.30
18703;DHT22;9481;48.796;9.210;2023-02-07T10:34:10;11.20;36.80
18703;DHT22;9481;48.796;9.210;2023-02-07T10:36:42;11.40;35.90
18703;DHT22;9481;48.796;9.210;2023-02-07T10:39:40;11.50;36.10
18703;DHT22;9481;48.796;9.210;2023-02-07T10:42:15;11.70;34.90
18703;DHT22;9481;48.796;9.210;2023-02-07T10:44:41;11.80;35.00
18703;DHT22;9481;48.796;9.210;2023-02-07T10:47:13;12.00;35.50
18703;DHT22;9481;48.796;9.210;2023-02-07T10:49:43;12.10;35.20
18703;DHT22;9481;48.796;9.210;2023-02-07T10:54:58;12.40;34.30
18703;DHT22;9481;48.796;9.210;2023-02-07T10:57:28;12.50;34.50
18703;DHT22;9481;48.796;9.210;2023-02-07T11:00:00;12.60;34.70
18703;DHT22;9481;48.796;9.210;2023-02-07T11:05:00;12.90;33.60
18703;DHT22;9481;48.796;9.210;2023-02-07T11:07:31;13.10;34.10
18703;DHT22;9481;48.796;9.210;2023-02-07T11:10:17;13.20;33.10
18703;DHT22;9481;48.796;9.210;2023-02-07T11:12:53;13.40;32.00
18703;DHT22;9481;48.796;9.210;2023-02-07T11:15:30;13.60;32.60
18703;DHT22;9481;48.796;9.210;2023-02-07T11:18:01;13.70;33.40
18703;DHT22;9481;48.796;9.210;2023-02-07T11:20:37;13.90;32.70
18703;DHT22;9481;48.796;9.210;2023-02-07T11:23:14;14.20;30.80
18703;DHT22;9481;48.796;9.210;2023-02-07T11:25:42;14.30;31.30
18703;DHT22;9481;48.796;9.210;2023-02-07T11:28:23;14.50;31.00
18703;DHT22;9481;48.796;9.210;2023-02-07T11:30:57;14.70;29.90
18703;DHT22;9481;48.796;9.210;2023-02-07T11:33:29;15.00;30.30
18703;DHT22;9481;48.796;9.210;2023-02-07T11:36:09;15.20;31.10
18703;DHT22;9481;48.796;9.210;2023-02-07T11:38:47;15.50;30.00
18703;DHT22;9481;48.796;9.210;2023-02-07T11:41:20;15.80;30.80
18703;DHT22;9481;48.796;9.210;2023-02-07T11:44:03;16.20;31.00
18703;DHT22;9481;48.796;9.210;2023-02-07T11:46:42;16.70;32.10
18703;DHT22;9481;48.796;9.210;2023-02-07T11:52:05;17.70;30.20
18703;DHT22;9481;48.796;9.210;2023-02-07T11:54:32;18.20;31.80
18703;DHT22;9481;48.796;9.210;2023-02-07T11:57:04;18.60;31.40
18703;DHT22;9481;48.796;9.210;2023-02-07T11:59:32;19.10;30.70
18703;DHT22;9481;48.796;9.210;2023-02-07T12:02:05;19.60;30.60
18703;DHT22;9481;48.796;9.210;2023-02-07T12:04:47;20.00;30.40
18703;DHT22;9481;48.796;9.210;2023-02-07T12:07:18;20.50;29.50
18703;DHT22;9481;48.796;9.210;2023-02-07T12:10:13;20.80;28.30
18703;DHT22;9481;48.796;9.210;2023-02-07T12:12:55;21.20;27.70
18703;DHT22;9481;48.796;9.210;2023-02-07T12:15:36;21.50;27.80
18703;DHT22;9481;48.796;9.210;2023-02-07T12:18:27;21.80;26.70
18703;DHT22;9481;48.796;9.210;2023-02-07T12:23:40;22.10;26.30
18703;DHT22;9481;48.796;9.210;2023-02-07T12:26:33;22.20;25.80
18703;DHT22;9481;48.796;9.210;2023-02-07T12:29:41;22.30;25.90
18703;DHT22;9481;48.796;9.210;2023-02-07T12:35:27;22.60;25.70
18703;DHT22;9481;48.796;9.210;2023-02-07T12:40:59;23.30;25.70
18703;DHT22;9481;48.796;9.210;2023-02-07T12:43:47;23.70;25.70
18703;DHT22;9481;48.796;9.210;2023-02-07T12:46:55;24.20;26.10
18703;DHT22;9481;48.796;9.210;2023-02-07T12:49:49;24.70;23.10
18703;DHT22;9481;48.796;9.210;2023-02-07T12:52:52;25.10;22.80
18703;DHT22;9481;48.796;9.210;2023-02-07T12:55:47;25.40;22.80
18703;DHT22;9481;48.796;9.210;2023-02-07T12:59:10;25.70;23.20
18703;DHT22;9481;48.796;9.210;2023-02-07T13:02:01;26.00;21.70
18703;DHT22;9481;48.796;9.210;2023-02-07T13:04:58;26.20;22.20
18703;DHT22;9481;48.796;9.210;2023-02-07T13:13:23;26.60;19.40
18703;DHT22;9481;48.796;9.210;2023-02-07T13:21:41;27.10;21.00
18703;DHT22;9481;48.796;9.210;2023-02-07T13:24:18;27.20;19.00
18703;DHT22;9481;48.796;9.210;2023-02-07T13:26:56;27.40;20.00
18703;DHT22;9481;48.796;9.210;2023-02-07T13:29:26;27.50;19.40
18703;DHT22;9481;48.796;9.210;2023-02-07T13:31:59;27.70;19.90
18703;DHT22;9481;48.796;9.210;2023-02-07T13:34:34;27.80;19.30
18703;DHT22;9481;48.796;9.210;2023-02-07T13:37:09;27.90;18.50
18703;DHT22;9481;48.796;9.210;2023-02-07T13:39:57;28.00;18.70
18703;DHT22;9481;48.796;9.210;2023-02-07T13:42:49;28.10;17.50
18703;DHT22;9481;48.796;9.210;2023-02-07T13:45:30;28.20;17.30
18703;DHT22;9481;48.796;9.210;2023-02-07T13:53:54;28.60;17.40
18703;DHT22;9481;48.796;9.210;2023-02-07T13:56:33;28.70;15.90
18703;DHT22;9481;48.796;9.210;2023-02-07T13:59:34;28.70;15.80
18703;DHT22;9481;48.796;9.210;2023-02-07T14:02:21;28.70;15.10
18703;DHT22;9481;48.796;9.210;2023-02-07T14:04:54;28.80;14.50
18703;DHT22;9481;48.796;9.210;2023-02-07T14:07:27;28.70;15.20
18703;DHT22;9481;48.796;9.210;2023-02-07T14:09:56;28.60;15.40
18703;DHT22;9481;48.796;9.210;2023-02-07T14:12:31;28.30;15.40
18703;DHT22;9481;48.796;9.210;2023-02-07T14:26:48;25.30;15.30
18703;DHT22;9481;48.796;9.210;2023-02-07T14:51:21;17.50;16.00
18703;DHT22;9481;48.796;9.210;2023-02-07T14:54:20;16.90;16.70
18703;DHT22;9481;48.796;9.210;2023-02-07T15:03:07;15.50;17.90
18703;DHT22;9481;48.796;9.210;2023-02-07T15:05:46;15.00;18.20
18703;DHT22;9481;48.796;9.210;2023-02-07T15:08:22;14.70;18.60
18703;DHT22;9481;48.796;9.210;2023-02-07T15:13:25;14.20;19.20
18703;DHT22;9481;48.796;9.210;2023-02-07T15:18:37;13.80;19.70
18703;DHT22;9481;48.796;9.210;2023-02-07T15:21:34;13.70;20.00
18703;DHT22;9481;48.796;9.210;2023-02-07T15:24:20;13.50;20.50
18703;DHT22;9481;48.796;9.210;2023-02-07T15:26:58;13.30;21.10
18703;DHT22;9481;48.796;9.210;2023-02-07T15:29:31;13.20;21.50
18703;DHT22;9481;48.796;9.210;2023-02-07T15:32:20;13.00;21.50
18703;DHT22;9481;48.796;9.210;2023-02-07T15:34:47;13.00;21.50
18703;DHT22;9481;48.796;9.210;2023-02-07T15:37:17;12.80;21.30
18703;DHT22;9481;48.796;9.210;2023-02-07T15:39:45;12.70;21.20
18703;DHT22;9481;48.796;9.210;2023-02-07T15:42:16;12.60;21.30
18703;DHT22;9481;48.796;9.210;2023-02-07T15:44:49;12.50;21.40
18703;DHT22;9481;48.796;9.210;2023-02-07T15:47:31;12.40;21.50
18703;DHT22;9481;48.796;9.210;2023-02-07T15:50:19;12.30;21.60
18703;DHT22;9481;48.796;9.210;2023-02-07T15:52:54;12.20;21.80
18703;DHT22;9481;48.796;9.210;2023-02-07T15:55:57;12.10;21.80
18703;DHT22;9481;48.796;9.210;2023-02-07T15:58:33;12.10;22.30
18703;DHT22;9481;48.796;9.210;2023-02-07T16:01:06;12.00;22.30
18703;DHT22;9481;48.796;9.210;2023-02-07T16:03:46;11.90;22.50
18703;DHT22;9481;48.796;9.210;2023-02-07T16:06:21;11.80;22.60
18703;DHT22;9481;48.796;9.210;2023-02-07T16:08:55;11.80;22.70
18703;DHT22;9481;48.796;9.210;2023-02-07T16:14:21;11.60;22.80
18703;DHT22;9481;48.796;9.210;2023-02-07T16:16:51;11.60;22.90
18703;DHT22;9481;48.796;9.210;2023-02-07T16:19:29;11.50;23.10
18703;DHT22;9481;48.796;9.210;2023-02-07T16:22:03;11.50;23.20
18703;DHT22;9481;48.796;9.210;2023-02-07T16:24:34;11.40;23.00
18703;DHT22;9481;48.796;9.210;2023-02-07T16:27:03;11.30;23.10
18703;DHT22;9481;48.796;9.210;2023-02-07T16:29:30;11.20;23.10
18703;DHT22;9481;48.796;9.210;2023-02-07T16:31:56;11.10;23.20
18703;DHT22;9481;48.796;9.210;2023-02-07T16:34:22;11.10;23.30
18703;DHT22;9481;48.796;9.210;2023-02-07T16:36:53;11.00;23.40
18703;DHT22;9481;48.796;9.210;2023-02-07T16:39:20;11.00;23.60
18703;DHT22;9481;48.796;9.210;2023-02-07T16:41:50;10.90;23.60
18703;DHT22;9481;48.796;9.210;2023-02-07T16:44:24;10.90;23.70
18703;DHT22;9481;48.796;9.210;2023-02-07T16:46:51;10.80;23.80
18703;DHT22;9481;48.796;9.210;2023-02-07T16:49:20;10.70;23.70
18703;DHT22;9481;48.796;9.210;2023-02-07T16:51:48;10.70;23.90
18703;DHT22;9481;48.796;9.210;2023-02-07T16:54:14;10.60;23.80
18703;DHT22;9481;48.796;9.210;2023-02-07T16:56:41;10.60;24.00
18703;DHT22;9481;48.796;9.210;2023-02-07T16:59:12;10.50;23.90
18703;DHT22;9481;48.796;9.210;2023-02-07T17:01:40;10.40;24.10
18703;DHT22;9481;48.796;9.210;2023-02-07T17:04:06;10.40;24.20
18703;DHT22;9481;48.796;9.210;2023-02-07T17:06:31;10.30;24.30
18703;DHT22;9481;48.796;9.210;2023-02-07T17:08:57;10.20;24.50
18703;DHT22;9481;48.796;9.210;2023-02-07T17:11:24;10.20;24.60
18703;DHT22;9481;48.796;9.210;2023-02-07T17:13:57;10.10;24.70
18703;DHT22;9481;48.796;9.210;2023-02-07T17:16:25;10.10;25.00
18703;DHT22;9481;48.796;9.210;2023-02-07T17:18:52;10.00;25.00
18703;DHT22;9481;48.796;9.210;2023-02-07T17:21:18;9.90;25.80
18703;DHT22;9481;48.796;9.210;2023-02-07T17:23:46;9.90;25.90
18703;DHT22;9481;48.796;9.210;2023-02-07T17:26:24;9.80;26.00
18703;DHT22;9481;48.796;9.210;2023-02-07T17:28:56;9.80;26.50
18703;DHT22;9481;48.796;9.210;2023-02-07T17:31:23;9.70;26.40
18703;DHT22;9481;48.796;9.210;2023-02-07T17:33:49;9.60;26.40
18703;DHT22;9481;48.796;9.210;2023-02-07T17:36:18;9.60;26.60
18703;DHT22;9481;48.796;9.210;2023-02-07T17:38:44;9.60;26.80
18703;DHT22;9481;48.796;9.210;2023-02-07T17:41:11;9.50;26.90
18703;DHT22;9481;48.796;9.210;2023-02-07T17:43:37;9.50;27.20
18703;DHT22;9481;48.796;9.210;2023-02-07T17:46:16;9.40;27.30
18703;DHT22;9481;48.796;9.210;2023-02-07T17:48:44;9.40;27.50
18703;DHT22;9481;48.796;9.210;2023-02-07T17:51:14;9.40;27.60
18703;DHT22;9481;48.796;9.210;2023-02-07T17:53:40;9.30;27.70
18703;DHT22;9481;48.796;9.210;2023-02-07T17:56:08;9.30;27.80
18703;DHT22;9481;48.796;9.210;2023-02-07T17:58:41;9.30;27.90
18703;DHT22;9481;48.796;9.210;2023-02-07T18:01:07;9.20;28.00
18703;DHT22;9481;48.796;9.210;2023-02-07T18:03:32;9.10;28.00
18703;DHT22;9481;48.796;9.210;2023-02-07T18:05:58;9.10;28.20
18703;DHT22;9481;48.796;9.210;2023-02-07T18:08:24;9.10;28.20
18703;DHT22;9481;48.796;9.210;2023-02-07T18:10:49;9.10;28.90
18703;DHT22;9481;48.796;9.210;2023-02-07T18:13:15;9.00;28.30
18703;DHT22;9481;48.796;9.210;2023-02-07T18:15:41;9.00;28.30
18703;DHT22;9481;48.796;9.210;2023-02-07T18:18:11;8.90;28.40
18703;DHT22;9481;48.796;9.210;2023-02-07T18:20:38;8.90;28.40
18703;DHT22;9481;48.796;9.210;2023-02-07T18:23:03;8.90;28.50
18703;DHT22;9481;48.796;9.210;2023-02-07T18:25:29;8.80;28.60
18703;DHT22;9481;48.796;9.210;2023-02-07T18:27:57;8.80;28.70
18703;DHT22;9481;48.796;9.210;2023-02-07T18:30:25;8.80;28.70